sensor_id;sensor_type;location;lat;lon;timestamp;P1;durP1;ratioP1;P2;durP2;ratioP2
37905;SDS011;23739;51.448;6.674;2024-03-06T00:00:10;32.10;;;19.15;;
37905;SDS011;23739;51.448;6.674;2024-03-06T00:02:36;30.48;;;19.23;;
37905;SDS011;23739;51.448;6.674;2024-03-06T00:05:02;27.33;;;18.15;;
37905;SDS011;23739;51.448;6.674;2024-03-06T00:07:29;30.17;;;17.90;;
37905;SDS011;23739;51.448;6.674;2024-03-06T00:09:55;31.80;;;21.08;;
37905;SDS011;23739;51.448;6.674;2024-03-06T00:12:21;27.70;;;17.02;;
37905;SDS011;23739;51.448;6.674;2024-03-06T00:14:47;26.05;;;17.00;;
37905;SDS011;23739;51.448;6.674;2024-03-06T00:17:13;28.58;;;18.10;;
37905;SDS011;23739;51.448;6.674;2024-03-06T00:19:40;35.45;;;21.23;;
37905;SDS011;23739;51.448;6.674;2024-03-06T00:22:06;33.67;;;21.50;;
37905;SDS011;23739;51.448;6.674;2024-03-06T00:24:32;27.67;;;17.95;;
37905;SDS011;23739;51.448;6.674;2024-03-06T00:26:58;25.77;;;17.88;;
37905;SDS011;23739;51.448;6.674;2024-03-06T00:29:24;27.75;;;17.10;;
37905;SDS011;23739;51.448;6.674;2024-03-06T00:31:50;28.58;;;18.23;;
37905;SDS011;23739;51.448;6.674;2024-03-06T00:34:16;28.98;;;17.48;;
37905;SDS011;23739;51.448;6.674;2024-03-06T00:36:42;33.80;;;19.83;;
37905;SDS011;23739;51.448;6.674;2024-03-06T00:39:09;32.13;;;20.63;;
37905;SDS011;23739;51.448;6.674;2024-03-06T00:41:35;30.05;;;18.67;;
37905;SDS011;23739;51.448;6.674;2024-03-06T00:44:01;27.73;;;18.23;;
37905;SDS011;23739;51.448;6.674;2024-03-06T00:46:28;29.48;;;20.20;;
37905;SDS011;23739;51.448;6.674;2024-03-06T00:48:54;28.42;;;18.35;;
37905;SDS011;23739;51.448;6.674;2024-03-06T00:51:20;32.85;;;20.52;;
37905;SDS011;23739;51.448;6.674;2024-03-06T00:53:46;36.50;;;20.25;;
37905;SDS011;23739;51.448;6.674;2024-03-06T00:56:12;29.35;;;19.50;;
37905;SDS011;23739;51.448;6.674;2024-03-06T00:58:38;27.83;;;18.55;;
37905;SDS011;23739;51.448;6.674;2024-03-06T01:01:04;33.17;;;19.63;;
37905;SDS011;23739;51.448;6.674;2024-03-06T01:03:30;25.33;;;16.88;;
37905;SDS011;23739;51.448;6.674;2024-03-06T01:05:56;28.27;;;19.00;;
37905;SDS011;23739;51.448;6.674;2024-03-06T01:08:22;29.63;;;18.38;;
37905;SDS011;23739;51.448;6.674;2024-03-06T01:10:50;27.88;;;18.67;;
37905;SDS011;23739;51.448;6.674;2024-03-06T01:13:16;29.08;;;17.38;;
37905;SDS011;23739;51.448;6.674;2024-03-06T01:15:42;29.83;;;17.73;;
37905;SDS011;23739;51.448;6.674;2024-03-06T01:18:08;25.73;;;17.73;;
37905;SDS011;23739;51.448;6.674;2024-03-06T01:20:34;27.77;;;18.05;;
37905;SDS011;23739;51.448;6.674;2024-03-06T01:23:01;26.30;;;18.02;;
37905;SDS011;23739;51.448;6.674;2024-03-06T01:25:27;24.45;;;17.92;;
37905;SDS011;23739;51.448;6.674;2024-03-06T01:27:54;29.02;;;18.45;;
37905;SDS011;23739;51.448;6.674;2024-03-06T01:30:20;31.98;;;19.05;;
37905;SDS011;23739;51.448;6.674;2024-03-06T01:32:46;25.65;;;16.05;;
37905;SDS011;23739;51.448;6.674;2024-03-06T01:35:12;24.52;;;16.63;;
37905;SDS011;23739;51.448;6.674;2024-03-06T01:37:38;24.30;;;16.50;;
37905;SDS011;23739;51.448;6.674;2024-03-06T01:40:04;28.60;;;17.15;;
37905;SDS011;23739;51.448;6.674;2024-03-06T01:42:30;23.83;;;16.70;;
37905;SDS011;23739;51.448;6.674;2024-03-06T01:44:57;28.85;;;17.33;;
37905;SDS011;23739;51.448;6.674;2024-03-06T01:47:23;28.42;;;16.80;;
37905;SDS011;23739;51.448;6.674;2024-03-06T01:49:49;27.48;;;17.77;;
37905;SDS011;23739;51.448;6.674;2024-03-06T01:52:15;27.63;;;17.52;;
37905;SDS011;23739;51.448;6.674;2024-03-06T01:54:42;26.92;;;17.02;;
37905;SDS011;23739;51.448;6.674;2024-03-06T01:57:10;29.25;;;18.80;;
37905;SDS011;23739;51.448;6.674;2024-03-06T01:59:39;28.75;;;18.27;;
37905;SDS011;23739;51.448;6.674;2024-03-06T02:02:06;26.52;;;17.17;;
37905;SDS011;23739;51.448;6.674;2024-03-06T02:04:33;24.27;;;17.17;;
37905;SDS011;23739;51.448;6.674;2024-03-06T02:07:00;28.80;;;18.75;;
37905;SDS011;23739;51.448;6.674;2024-03-06T02:09:26;26.02;;;17.67;;
37905;SDS011;23739;51.448;6.674;2024-03-06T02:11:53;30.48;;;18.48;;
37905;SDS011;23739;51.448;6.674;2024-03-06T02:14:19;28.33;;;18.20;;
37905;SDS011;23739;51.448;6.674;2024-03-06T02:16:45;25.10;;;16.50;;
37905;SDS011;23739;51.448;6.674;2024-03-06T02:19:11;28.23;;;17.40;;
37905;SDS011;23739;51.448;6.674;2024-03-06T02:21:37;34.72;;;18.95;;
37905;SDS011;23739;51.448;6.674;2024-03-06T02:24:03;26.20;;;17.80;;
37905;SDS011;23739;51.448;6.674;2024-03-06T02:26:29;30.92;;;19.88;;
37905;SDS011;23739;51.448;6.674;2024-03-06T02:28:55;32.50;;;19.67;;
37905;SDS011;23739;51.448;6.674;2024-03-06T02:31:22;38.15;;;22.50;;
37905;SDS011;23739;51.448;6.674;2024-03-06T02:33:48;36.47;;;21.15;;
37905;SDS011;23739;51.448;6.674;2024-03-06T02:36:18;29.63;;;20.08;;
37905;SDS011;23739;51.448;6.674;2024-03-06T02:38:44;29.10;;;19.02;;
37905;SDS011;23739;51.448;6.674;2024-03-06T02:41:11;32.45;;;19.73;;
37905;SDS011;23739;51.448;6.674;2024-03-06T02:43:39;31.75;;;19.75;;
37905;SDS011;23739;51.448;6.674;2024-03-06T02:46:05;36.08;;;20.30;;
37905;SDS011;23739;51.448;6.674;2024-03-06T02:48:31;35.15;;;20.40;;
37905;SDS011;23739;51.448;6.674;2024-03-06T02:50:57;31.77;;;19.38;;
37905;SDS011;23739;51.448;6.674;2024-03-06T02:53:23;27.05;;;18.27;;
37905;SDS011;23739;51.448;6.674;2024-03-06T02:55:50;29.95;;;20.42;;
37905;SDS011;23739;51.448;6.674;2024-03-06T02:58:16;34.25;;;21.27;;
37905;SDS011;23739;51.448;6.674;2024-03-06T03:00:43;36.47;;;20.50;;
37905;SDS011;23739;51.448;6.674;2024-03-06T03:03:09;33.50;;;20.52;;
37905;SDS011;23739;51.448;6.674;2024-03-06T03:05:37;30.70;;;19.73;;
37905;SDS011;23739;51.448;6.674;2024-03-06T03:08:03;29.05;;;18.00;;
37905;SDS011;23739;51.448;6.674;2024-03-06T03:10:30;31.20;;;18.80;;
37905;SDS011;23739;51.448;6.674;2024-03-06T03:12:56;28.40;;;17.45;;
37905;SDS011;23739;51.448;6.674;2024-03-06T03:15:22;31.13;;;19.27;;
37905;SDS011;23739;51.448;6.674;2024-03-06T03:17:48;33.30;;;20.65;;
37905;SDS011;23739;51.448;6.674;2024-03-06T03:20:15;29.73;;;17.73;;
37905;SDS011;23739;51.448;6.674;2024-03-06T03:22:42;34.95;;;20.08;;
37905;SDS011;23739;51.448;6.674;2024-03-06T03:25:09;28.95;;;18.67;;
37905;SDS011;23739;51.448;6.674;2024-03-06T03:27:38;31.10;;;18.77;;
37905;SDS011;23739;51.448;6.674;2024-03-06T03:30:11;33.17;;;19.60;;
37905;SDS011;23739;51.448;6.674;2024-03-06T03:32:37;31.08;;;19.70;;
37905;SDS011;23739;51.448;6.674;2024-03-06T03:35:04;30.85;;;19.08;;
37905;SDS011;23739;51.448;6.674;2024-03-06T03:37:30;30.70;;;18.02;;
37905;SDS011;23739;51.448;6.674;2024-03-06T03:39:56;27.67;;;17.52;;
37905;SDS011;23739;51.448;6.674;2024-03-06T03:42:22;29.90;;;18.52;;
37905;SDS011;23739;51.448;6.674;2024-03-06T03:44:48;27.88;;;17.58;;
37905;SDS011;23739;51.448;6.674;2024-03-06T03:47:14;27.92;;;17.13;;
37905;SDS011;23739;51.448;6.674;2024-03-06T03:49:40;29.20;;;18.40;;
37905;SDS011;23739;51.448;6.674;2024-03-06T03:52:07;23.40;;;14.80;;
37905;SDS011;23739;51.448;6.674;2024-03-06T03:54:33;31.45;;;18.95;;
37905;SDS011;23739;51.448;6.674;2024-03-06T03:57:00;27.95;;;16.52;;
37905;SDS011;23739;51.448;6.674;2024-03-06T03:59:26;29.95;;;17.48;;
37905;SDS011;23739;51.448;6.674;2024-03-06T04:01:52;31.98;;;19.67;;
37905;SDS011;23739;51.448;6.674;2024-03-06T04:04:18;29.33;;;17.98;;
37905;SDS011;23739;51.448;6.674;2024-03-06T04:06:44;31.35;;;17.95;;
37905;SDS011;23739;51.448;6.674;2024-03-06T04:09:11;28.40;;;18.83;;
37905;SDS011;23739;51.448;6.674;2024-03-06T04:11:37;29.15;;;18.73;;
37905;SDS011;23739;51.448;6.674;2024-03-06T04:14:03;30.60;;;18.70;;
37905;SDS011;23739;51.448;6.674;2024-03-06T04:16:31;26.00;;;16.92;;
37905;SDS011;23739;51.448;6.674;2024-03-06T04:18:57;30.80;;;17.77;;
37905;SDS011;23739;51.448;6.674;2024-03-06T04:21:23;32.70;;;19.38;;
37905;SDS011;23739;51.448;6.674;2024-03-06T04:23:49;28.20;;;18.48;;
37905;SDS011;23739;51.448;6.674;2024-03-06T04:26:15;31.60;;;17.63;;
37905;SDS011;23739;51.448;6.674;2024-03-06T04:28:42;29.33;;;18.08;;
37905;SDS011;23739;51.448;6.674;2024-03-06T04:31:08;26.15;;;17.00;;
37905;SDS011;23739;51.448;6.674;2024-03-06T04:33:34;31.35;;;18.00;;
37905;SDS011;23739;51.448;6.674;2024-03-06T04:36:04;31.30;;;18.23;;
37905;SDS011;23739;51.448;6.674;2024-03-06T04:38:30;35.13;;;19.48;;
37905;SDS011;23739;51.448;6.674;2024-03-06T04:40:56;31.42;;;19.05;;
37905;SDS011;23739;51.448;6.674;2024-03-06T04:43:22;32.45;;;20.33;;
37905;SDS011;23739;51.448;6.674;2024-03-06T04:45:49;33.95;;;19.75;;
37905;SDS011;23739;51.448;6.674;2024-03-06T04:48:15;33.47;;;19.08;;
37905;SDS011;23739;51.448;6.674;2024-03-06T04:50:41;34.15;;;19.75;;
37905;SDS011;23739;51.448;6.674;2024-03-06T04:53:07;34.90;;;20.52;;
37905;SDS011;23739;51.448;6.674;2024-03-06T04:55:33;30.70;;;18.45;;
37905;SDS011;23739;51.448;6.674;2024-03-06T04:58:02;32.92;;;20.20;;
37905;SDS011;23739;51.448;6.674;2024-03-06T05:00:28;28.67;;;18.50;;
37905;SDS011;23739;51.448;6.674;2024-03-06T05:02:54;35.40;;;20.17;;
37905;SDS011;23739;51.448;6.674;2024-03-06T05:05:21;27.48;;;17.90;;
37905;SDS011;23739;51.448;6.674;2024-03-06T05:07:47;28.20;;;17.70;;
37905;SDS011;23739;51.448;6.674;2024-03-06T05:10:14;27.13;;;16.23;;
37905;SDS011;23739;51.448;6.674;2024-03-06T05:12:41;25.08;;;16.05;;
37905;SDS011;23739;51.448;6.674;2024-03-06T05:15:07;28.17;;;17.52;;
37905;SDS011;23739;51.448;6.674;2024-03-06T05:17:34;28.55;;;17.27;;
37905;SDS011;23739;51.448;6.674;2024-03-06T05:20:00;32.38;;;18.77;;
37905;SDS011;23739;51.448;6.674;2024-03-06T05:22:26;27.10;;;16.95;;
37905;SDS011;23739;51.448;6.674;2024-03-06T05:24:52;30.90;;;18.13;;
37905;SDS011;23739;51.448;6.674;2024-03-06T05:27:20;29.70;;;17.85;;
37905;SDS011;23739;51.448;6.674;2024-03-06T05:29:46;28.73;;;16.65;;
37905;SDS011;23739;51.448;6.674;2024-03-06T05:32:12;35.88;;;18.90;;
37905;SDS011;23739;51.448;6.674;2024-03-06T05:34:38;33.50;;;19.55;;
37905;SDS011;23739;51.448;6.674;2024-03-06T05:37:04;31.50;;;19.75;;
37905;SDS011;23739;51.448;6.674;2024-03-06T05:39:30;32.92;;;18.77;;
37905;SDS011;23739;51.448;6.674;2024-03-06T05:42:03;29.75;;;19.35;;
37905;SDS011;23739;51.448;6.674;2024-03-06T05:44:29;28.17;;;16.67;;
37905;SDS011;23739;51.448;6.674;2024-03-06T05:46:57;26.77;;;16.33;;
37905;SDS011;23739;51.448;6.674;2024-03-06T05:49:23;30.83;;;18.60;;
37905;SDS011;23739;51.448;6.674;2024-03-06T05:51:50;28.33;;;16.30;;
37905;SDS011;23739;51.448;6.674;2024-03-06T05:54:17;36.08;;;20.27;;
37905;SDS011;23739;51.448;6.674;2024-03-06T05:56:44;37.80;;;21.17;;
37905;SDS011;23739;51.448;6.674;2024-03-06T05:59:10;33.50;;;18.98;;
37905;SDS011;23739;51.448;6.674;2024-03-06T06:01:37;37.03;;;19.38;;
37905;SDS011;23739;51.448;6.674;2024-03-06T06:04:03;34.47;;;19.30;;
37905;SDS011;23739;51.448;6.674;2024-03-06T06:06:29;31.45;;;18.17;;
37905;SDS011;23739;51.448;6.674;2024-03-06T06:08:55;31.65;;;18.80;;
37905;SDS011;23739;51.448;6.674;2024-03-06T06:11:21;36.75;;;19.77;;
37905;SDS011;23739;51.448;6.674;2024-03-06T06:13:47;37.85;;;21.88;;
37905;SDS011;23739;51.448;6.674;2024-03-06T06:16:13;36.83;;;21.33;;
37905;SDS011;23739;51.448;6.674;2024-03-06T06:18:42;45.80;;;23.13;;
37905;SDS011;23739;51.448;6.674;2024-03-06T06:21:08;51.92;;;25.17;;
37905;SDS011;23739;51.448;6.674;2024-03-06T06:23:34;55.13;;;27.40;;
37905;SDS011;23739;51.448;6.674;2024-03-06T06:26:00;49.05;;;27.20;;
37905;SDS011;23739;51.448;6.674;2024-03-06T06:28:26;62.00;;;34.30;;
37905;SDS011;23739;51.448;6.674;2024-03-06T06:30:53;61.63;;;32.47;;
37905;SDS011;23739;51.448;6.674;2024-03-06T06:33:19;56.95;;;30.60;;
37905;SDS011;23739;51.448;6.674;2024-03-06T06:35:48;48.85;;;27.95;;
37905;SDS011;23739;51.448;6.674;2024-03-06T06:38:14;59.67;;;32.20;;
37905;SDS011;23739;51.448;6.674;2024-03-06T06:40:40;60.58;;;30.50;;
37905;SDS011;23739;51.448;6.674;2024-03-06T06:43:06;56.10;;;31.02;;
37905;SDS011;23739;51.448;6.674;2024-03-06T06:45:32;49.67;;;27.85;;
37905;SDS011;23739;51.448;6.674;2024-03-06T06:47:58;55.78;;;29.20;;
37905;SDS011;23739;51.448;6.674;2024-03-06T06:50:24;51.40;;;28.67;;
37905;SDS011;23739;51.448;6.674;2024-03-06T06:52:52;51.00;;;28.00;;
37905;SDS011;23739;51.448;6.674;2024-03-06T06:55:19;56.05;;;30.42;;
37905;SDS011;23739;51.448;6.674;2024-03-06T06:57:48;57.13;;;30.63;;
37905;SDS011;23739;51.448;6.674;2024-03-06T07:00:14;56.20;;;30.00;;
37905;SDS011;23739;51.448;6.674;2024-03-06T07:02:44;52.97;;;28.58;;
37905;SDS011;23739;51.448;6.674;2024-03-06T07:05:10;50.15;;;27.95;;
37905;SDS011;23739;51.448;6.674;2024-03-06T07:07:36;50.80;;;28.40;;
37905;SDS011;23739;51.448;6.674;2024-03-06T07:10:03;56.70;;;30.05;;
37905;SDS011;23739;51.448;6.674;2024-03-06T07:12:29;54.97;;;28.15;;
37905;SDS011;23739;51.448;6.674;2024-03-06T07:14:55;53.88;;;28.67;;
37905;SDS011;23739;51.448;6.674;2024-03-06T07:17:21;47.60;;;27.10;;
37905;SDS011;23739;51.448;6.674;2024-03-06T07:19:47;52.38;;;28.35;;
37905;SDS011;23739;51.448;6.674;2024-03-06T07:22:13;59.60;;;31.00;;
37905;SDS011;23739;51.448;6.674;2024-03-06T07:24:40;59.28;;;30.45;;
37905;SDS011;23739;51.448;6.674;2024-03-06T07:27:06;64.18;;;29.10;;
37905;SDS011;23739;51.448;6.674;2024-03-06T07:29:34;59.83;;;29.10;;
37905;SDS011;23739;51.448;6.674;2024-03-06T07:32:00;64.20;;;30.70;;
37905;SDS011;23739;51.448;6.674;2024-03-06T07:34:27;54.03;;;30.08;;
37905;SDS011;23739;51.448;6.674;2024-03-06T07:36:53;63.38;;;31.98;;
37905;SDS011;23739;51.448;6.674;2024-03-06T07:39:19;59.28;;;33.13;;
37905;SDS011;23739;51.448;6.674;2024-03-06T07:41:46;66.13;;;33.00;;
37905;SDS011;23739;51.448;6.674;2024-03-06T07:44:12;70.75;;;35.40;;
37905;SDS011;23739;51.448;6.674;2024-03-06T07:46:38;77.22;;;35.83;;
37905;SDS011;23739;51.448;6.674;2024-03-06T07:49:04;80.00;;;34.92;;
37905;SDS011;23739;51.448;6.674;2024-03-06T07:51:31;79.57;;;36.15;;
37905;SDS011;23739;51.448;6.674;2024-03-06T07:53:58;74.50;;;36.97;;
37905;SDS011;23739;51.448;6.674;2024-03-06T07:56:24;70.50;;;36.38;;
37905;SDS011;23739;51.448;6.674;2024-03-06T07:58:51;78.03;;;37.63;;
37905;SDS011;23739;51.448;6.674;2024-03-06T08:01:17;67.78;;;37.40;;
37905;SDS011;23739;51.448;6.674;2024-03-06T08:03:43;69.80;;;36.00;;
37905;SDS011;23739;51.448;6.674;2024-03-06T08:06:09;68.10;;;38.20;;
37905;SDS011;23739;51.448;6.674;2024-03-06T08:08:35;68.40;;;37.78;;
37905;SDS011;23739;51.448;6.674;2024-03-06T08:11:02;63.78;;;35.45;;
37905;SDS011;23739;51.448;6.674;2024-03-06T08:13:28;68.28;;;34.90;;
37905;SDS011;23739;51.448;6.674;2024-03-06T08:15:54;63.95;;;36.38;;
37905;SDS011;23739;51.448;6.674;2024-03-06T08:18:21;53.05;;;32.33;;
37905;SDS011;23739;51.448;6.674;2024-03-06T08:20:47;57.88;;;32.38;;
37905;SDS011;23739;51.448;6.674;2024-03-06T08:23:13;58.95;;;32.05;;
37905;SDS011;23739;51.448;6.674;2024-03-06T08:25:39;50.47;;;30.63;;
37905;SDS011;23739;51.448;6.674;2024-03-06T08:28:05;46.72;;;29.88;;
37905;SDS011;23739;51.448;6.674;2024-03-06T08:30:31;40.65;;;27.33;;
37905;SDS011;23739;51.448;6.674;2024-03-06T08:32:58;44.13;;;28.52;;
37905;SDS011;23739;51.448;6.674;2024-03-06T08:35:24;41.25;;;26.55;;
37905;SDS011;23739;51.448;6.674;2024-03-06T08:37:50;42.38;;;26.85;;
37905;SDS011;23739;51.448;6.674;2024-03-06T08:40:17;43.50;;;26.55;;
37905;SDS011;23739;51.448;6.674;2024-03-06T08:42:43;38.08;;;25.65;;
37905;SDS011;23739;51.448;6.674;2024-03-06T08:45:10;41.20;;;26.08;;
37905;SDS011;23739;51.448;6.674;2024-03-06T08:47:36;37.88;;;25.00;;
37905;SDS011;23739;51.448;6.674;2024-03-06T08:50:03;36.72;;;24.17;;
37905;SDS011;23739;51.448;6.674;2024-03-06T08:52:29;39.45;;;23.95;;
37905;SDS011;23739;51.448;6.674;2024-03-06T08:54:59;34.75;;;22.83;;
37905;SDS011;23739;51.448;6.674;2024-03-06T08:57:25;34.00;;;22.83;;
37905;SDS011;23739;51.448;6.674;2024-03-06T08:59:53;29.48;;;20.08;;
37905;SDS011;23739;51.448;6.674;2024-03-06T09:02:19;26.65;;;18.45;;
37905;SDS011;23739;51.448;6.674;2024-03-06T09:04:46;28.08;;;19.77;;
37905;SDS011;23739;51.448;6.674;2024-03-06T09:07:12;27.70;;;17.73;;
37905;SDS011;23739;51.448;6.674;2024-03-06T09:09:38;26.15;;;19.55;;
37905;SDS011;23739;51.448;6.674;2024-03-06T09:12:05;28.52;;;19.70;;
37905;SDS011;23739;51.448;6.674;2024-03-06T09:14:32;27.25;;;19.20;;
37905;SDS011;23739;51.448;6.674;2024-03-06T09:16:59;25.20;;;19.30;;
37905;SDS011;23739;51.448;6.674;2024-03-06T09:19:25;30.60;;;19.77;;
37905;SDS011;23739;51.448;6.674;2024-03-06T09:21:51;26.35;;;19.00;;
37905;SDS011;23739;51.448;6.674;2024-03-06T09:24:17;27.80;;;19.63;;
37905;SDS011;23739;51.448;6.674;2024-03-06T09:26:43;30.23;;;19.58;;
37905;SDS011;23739;51.448;6.674;2024-03-06T09:29:10;31.58;;;21.20;;
37905;SDS011;23739;51.448;6.674;2024-03-06T09:31:36;22.52;;;18.42;;
37905;SDS011;23739;51.448;6.674;2024-03-06T09:34:02;23.55;;;18.35;;
37905;SDS011;23739;51.448;6.674;2024-03-06T09:36:28;31.35;;;19.58;;
37905;SDS011;23739;51.448;6.674;2024-03-06T09:38:54;27.45;;;20.02;;
37905;SDS011;23739;51.448;6.674;2024-03-06T09:41:22;30.02;;;21.50;;
37905;SDS011;23739;51.448;6.674;2024-03-06T09:43:48;29.38;;;21.83;;
37905;SDS011;23739;51.448;6.674;2024-03-06T09:46:14;25.02;;;19.75;;
37905;SDS011;23739;51.448;6.674;2024-03-06T09:48:47;26.38;;;17.67;;
37905;SDS011;23739;51.448;6.674;2024-03-06T09:51:13;26.10;;;17.83;;
37905;SDS011;23739;51.448;6.674;2024-03-06T09:53:39;27.30;;;18.65;;
37905;SDS011;23739;51.448;6.674;2024-03-06T09:56:06;30.02;;;19.60;;
37905;SDS011;23739;51.448;6.674;2024-03-06T09:58:33;29.08;;;21.02;;
37905;SDS011;23739;51.448;6.674;2024-03-06T10:00:59;37.67;;;24.27;;
37905;SDS011;23739;51.448;6.674;2024-03-06T10:03:28;28.65;;;19.92;;
37905;SDS011;23739;51.448;6.674;2024-03-06T10:05:54;29.52;;;19.77;;
37905;SDS011;23739;51.448;6.674;2024-03-06T10:08:21;32.17;;;21.75;;
37905;SDS011;23739;51.448;6.674;2024-03-06T10:10:50;41.13;;;25.95;;
37905;SDS011;23739;51.448;6.674;2024-03-06T10:13:16;50.67;;;31.48;;
37905;SDS011;23739;51.448;6.674;2024-03-06T10:15:55;50.65;;;30.10;;
37905;SDS011;23739;51.448;6.674;2024-03-06T10:18:22;52.83;;;31.75;;
37905;SDS011;23739;51.448;6.674;2024-03-06T10:20:51;56.58;;;34.17;;
37905;SDS011;23739;51.448;6.674;2024-03-06T10:23:19;58.33;;;32.55;;
37905;SDS011;23739;51.448;6.674;2024-03-06T10:25:46;59.70;;;34.97;;
37905;SDS011;23739;51.448;6.674;2024-03-06T10:28:16;52.50;;;32.28;;
37905;SDS011;23739;51.448;6.674;2024-03-06T10:30:42;52.65;;;33.17;;
37905;SDS011;23739;51.448;6.674;2024-03-06T10:33:10;57.17;;;34.03;;
37905;SDS011;23739;51.448;6.674;2024-03-06T10:35:37;68.68;;;39.28;;
37905;SDS011;23739;51.448;6.674;2024-03-06T10:38:03;74.63;;;42.63;;
37905;SDS011;23739;51.448;6.674;2024-03-06T10:40:33;74.07;;;45.10;;
37905;SDS011;23739;51.448;6.674;2024-03-06T10:43:00;72.47;;;45.42;;
37905;SDS011;23739;51.448;6.674;2024-03-06T10:48:10;69.05;;;42.63;;
37905;SDS011;23739;51.448;6.674;2024-03-06T10:50:39;65.28;;;40.97;;
37905;SDS011;23739;51.448;6.674;2024-03-06T10:53:09;70.80;;;42.22;;
37905;SDS011;23739;51.448;6.674;2024-03-06T10:55:36;67.95;;;42.33;;
37905;SDS011;23739;51.448;6.674;2024-03-06T10:58:05;66.75;;;42.42;;
37905;SDS011;23739;51.448;6.674;2024-03-06T11:00:34;71.93;;;43.47;;
37905;SDS011;23739;51.448;6.674;2024-03-06T11:03:00;60.28;;;41.05;;
37905;SDS011;23739;51.448;6.674;2024-03-06T11:05:33;60.58;;;40.72;;
37905;SDS011;23739;51.448;6.674;2024-03-06T11:08:01;56.83;;;38.70;;
37905;SDS011;23739;51.448;6.674;2024-03-06T11:10:34;66.60;;;40.35;;
37905;SDS011;23739;51.448;6.674;2024-03-06T11:13:01;53.15;;;35.40;;
37905;SDS011;23739;51.448;6.674;2024-03-06T11:15:28;59.92;;;39.55;;
37905;SDS011;23739;51.448;6.674;2024-03-06T11:17:54;61.28;;;38.95;;
37905;SDS011;23739;51.448;6.674;2024-03-06T11:20:20;55.35;;;36.47;;
37905;SDS011;23739;51.448;6.674;2024-03-06T11:28:09;54.20;;;35.30;;
37905;SDS011;23739;51.448;6.674;2024-03-06T11:30:44;53.22;;;36.40;;
37905;SDS011;23739;51.448;6.674;2024-03-06T11:33:12;47.92;;;33.08;;
37905;SDS011;23739;51.448;6.674;2024-03-06T11:35:38;49.55;;;31.80;;
37905;SDS011;23739;51.448;6.674;2024-03-06T11:38:09;48.40;;;30.95;;
37905;SDS011;23739;51.448;6.674;2024-03-06T11:40:45;52.28;;;29.48;;
37905;SDS011;23739;51.448;6.674;2024-03-06T11:43:26;47.00;;;30.13;;
37905;SDS011;23739;51.448;6.674;2024-03-06T11:45:53;38.95;;;26.38;;
37905;SDS011;23739;51.448;6.674;2024-03-06T11:48:19;46.17;;;29.27;;
37905;SDS011;23739;51.448;6.674;2024-03-06T11:50:46;40.85;;;25.48;;
37905;SDS011;23739;51.448;6.674;2024-03-06T11:53:15;43.33;;;30.42;;
37905;SDS011;23739;51.448;6.674;2024-03-06T11:55:42;44.00;;;27.38;;
37905;SDS011;23739;51.448;6.674;2024-03-06T11:58:08;41.67;;;26.08;;
37905;SDS011;23739;51.448;6.674;2024-03-06T12:00:36;36.70;;;25.50;;
37905;SDS011;23739;51.448;6.674;2024-03-06T12:03:03;49.03;;;27.58;;
37905;SDS011;23739;51.448;6.674;2024-03-06T12:05:31;36.58;;;25.13;;
37905;SDS011;23739;51.448;6.674;2024-03-06T12:07:57;31.00;;;21.90;;
37905;SDS011;23739;51.448;6.674;2024-03-06T12:10:23;32.17;;;20.08;;
37905;SDS011;23739;51.448;6.674;2024-03-06T12:12:49;29.08;;;19.15;;
37905;SDS011;23739;51.448;6.674;2024-03-06T12:15:15;33.58;;;20.60;;
37905;SDS011;23739;51.448;6.674;2024-03-06T12:17:44;37.42;;;21.90;;
37905;SDS011;23739;51.448;6.674;2024-03-06T12:20:11;31.08;;;20.55;;
37905;SDS011;23739;51.448;6.674;2024-03-06T12:22:44;34.00;;;21.42;;
37905;SDS011;23739;51.448;6.674;2024-03-06T12:25:10;31.95;;;20.70;;
37905;SDS011;23739;51.448;6.674;2024-03-06T12:27:36;30.77;;;20.08;;
37905;SDS011;23739;51.448;6.674;2024-03-06T12:30:07;26.70;;;19.20;;
37905;SDS011;23739;51.448;6.674;2024-03-06T12:32:33;26.60;;;19.40;;
37905;SDS011;23739;51.448;6.674;2024-03-06T12:35:00;30.48;;;18.90;;
37905;SDS011;23739;51.448;6.674;2024-03-06T12:37:29;30.35;;;18.88;;
37905;SDS011;23739;51.448;6.674;2024-03-06T12:39:56;28.23;;;19.50;;
37905;SDS011;23739;51.448;6.674;2024-03-06T12:42:22;28.70;;;19.55;;
37905;SDS011;23739;51.448;6.674;2024-03-06T12:44:51;29.27;;;18.40;;
37905;SDS011;23739;51.448;6.674;2024-03-06T12:47:17;26.27;;;18.80;;
37905;SDS011;23739;51.448;6.674;2024-03-06T12:49:44;24.33;;;16.98;;
37905;SDS011;23739;51.448;6.674;2024-03-06T12:52:10;27.88;;;17.98;;
37905;SDS011;23739;51.448;6.674;2024-03-06T12:54:36;26.27;;;17.17;;
37905;SDS011;23739;51.448;6.674;2024-03-06T12:57:02;25.98;;;16.85;;
37905;SDS011;23739;51.448;6.674;2024-03-06T12:59:29;20.58;;;15.25;;
37905;SDS011;23739;51.448;6.674;2024-03-06T13:01:55;21.45;;;14.07;;
37905;SDS011;23739;51.448;6.674;2024-03-06T13:04:22;21.88;;;14.68;;
37905;SDS011;23739;51.448;6.674;2024-03-06T13:06:48;20.70;;;14.90;;
37905;SDS011;23739;51.448;6.674;2024-03-06T13:09:14;28.00;;;19.02;;
37905;SDS011;23739;51.448;6.674;2024-03-06T13:11:40;26.20;;;19.20;;
37905;SDS011;23739;51.448;6.674;2024-03-06T13:14:09;24.58;;;18.17;;
37905;SDS011;23739;51.448;6.674;2024-03-06T13:16:37;26.13;;;19.60;;
37905;SDS011;23739;51.448;6.674;2024-03-06T13:19:03;29.88;;;20.60;;
37905;SDS011;23739;51.448;6.674;2024-03-06T13:21:29;34.10;;;23.52;;
37905;SDS011;23739;51.448;6.674;2024-03-06T13:23:56;32.47;;;23.00;;
37905;SDS011;23739;51.448;6.674;2024-03-06T13:26:22;30.65;;;24.13;;
37905;SDS011;23739;51.448;6.674;2024-03-06T13:28:52;27.13;;;22.00;;
37905;SDS011;23739;51.448;6.674;2024-03-06T13:31:21;28.35;;;22.25;;
37905;SDS011;23739;51.448;6.674;2024-03-06T13:33:48;30.80;;;21.17;;
37905;SDS011;23739;51.448;6.674;2024-03-06T13:36:14;29.33;;;21.17;;
37905;SDS011;23739;51.448;6.674;2024-03-06T13:38:40;29.08;;;21.10;;
37905;SDS011;23739;51.448;6.674;2024-03-06T13:41:07;27.98;;;20.20;;
37905;SDS011;23739;51.448;6.674;2024-03-06T13:43:33;29.77;;;22.25;;
37905;SDS011;23739;51.448;6.674;2024-03-06T13:45:59;27.17;;;20.85;;
37905;SDS011;23739;51.448;6.674;2024-03-06T13:48:25;26.77;;;20.58;;
37905;SDS011;23739;51.448;6.674;2024-03-06T13:50:52;32.88;;;21.33;;
37905;SDS011;23739;51.448;6.674;2024-03-06T13:53:18;25.05;;;19.92;;
37905;SDS011;23739;51.448;6.674;2024-03-06T13:55:44;26.98;;;20.25;;
37905;SDS011;23739;51.448;6.674;2024-03-06T13:58:10;29.58;;;21.10;;
37905;SDS011;23739;51.448;6.674;2024-03-06T14:00:37;30.58;;;21.80;;
37905;SDS011;23739;51.448;6.674;2024-03-06T14:03:03;27.30;;;19.95;;
37905;SDS011;23739;51.448;6.674;2024-03-06T14:05:29;31.17;;;20.55;;
37905;SDS011;23739;51.448;6.674;2024-03-06T14:07:55;31.42;;;20.25;;
37905;SDS011;23739;51.448;6.674;2024-03-06T14:10:22;29.98;;;18.63;;
37905;SDS011;23739;51.448;6.674;2024-03-06T14:12:49;28.95;;;19.27;;
37905;SDS011;23739;51.448;6.674;2024-03-06T14:15:20;30.75;;;19.60;;
37905;SDS011;23739;51.448;6.674;2024-03-06T14:17:47;24.58;;;17.58;;
37905;SDS011;23739;51.448;6.674;2024-03-06T14:20:13;27.83;;;19.15;;
37905;SDS011;23739;51.448;6.674;2024-03-06T14:22:43;27.98;;;18.83;;
37905;SDS011;23739;51.448;6.674;2024-03-06T14:25:09;28.60;;;19.67;;